sensor_id;sensor_type;location;lat;lon;timestamp;P1;durP1;ratioP1;P2;durP2;ratioP2
13795;SDS011;40911;51.552;9.874;2024-01-06T00:00:00;3.70;;;2.03;;
13795;SDS011;40911;51.552;9.874;2024-01-06T00:02:21;3.58;;;2.00;;
13795;SDS011;40911;51.552;9.874;2024-01-06T00:04:43;2.90;;;2.17;;
13795;SDS011;40911;51.552;9.874;2024-01-06T00:07:04;2.50;;;1.70;;
13795;SDS011;40911;51.552;9.874;2024-01-06T00:09:26;5.43;;;2.20;;
13795;SDS011;40911;51.552;9.874;2024-01-06T00:11:48;3.85;;;2.28;;
13795;SDS011;40911;51.552;9.874;2024-01-06T00:14:10;2.40;;;2.03;;
13795;SDS011;40911;51.552;9.874;2024-01-06T00:16:32;3.35;;;2.05;;
13795;SDS011;40911;51.552;9.874;2024-01-06T00:18:54;2.95;;;2.38;;
13795;SDS011;40911;51.552;9.874;2024-01-06T00:21:15;2.47;;;2.00;;
13795;SDS011;40911;51.552;9.874;2024-01-06T00:23:37;3.88;;;2.25;;
13795;SDS011;40911;51.552;9.874;2024-01-06T00:25:58;5.75;;;2.20;;
13795;SDS011;40911;51.552;9.874;2024-01-06T00:28:20;3.78;;;2.30;;
13795;SDS011;40911;51.552;9.874;2024-01-06T00:30:43;2.33;;;2.10;;
13795;SDS011;40911;51.552;9.874;2024-01-06T00:33:05;3.45;;;2.20;;
13795;SDS011;40911;51.552;9.874;2024-01-06T00:35:27;2.85;;;2.03;;
13795;SDS011;40911;51.552;9.874;2024-01-06T00:37:48;2.63;;;2.28;;
13795;SDS011;40911;51.552;9.874;2024-01-06T00:40:10;2.35;;;2.00;;
13795;SDS011;40911;51.552;9.874;2024-01-06T00:42:32;4.50;;;2.40;;
13795;SDS011;40911;51.552;9.874;2024-01-06T00:44:54;2.83;;;2.30;;
13795;SDS011;40911;51.552;9.874;2024-01-06T00:47:17;3.13;;;2.17;;
13795;SDS011;40911;51.552;9.874;2024-01-06T00:49:38;5.15;;;2.50;;
13795;SDS011;40911;51.552;9.874;2024-01-06T00:52:00;4.55;;;2.63;;
13795;SDS011;40911;51.552;9.874;2024-01-06T00:54:21;2.40;;;2.20;;
13795;SDS011;40911;51.552;9.874;2024-01-06T00:56:43;5.07;;;2.60;;
13795;SDS011;40911;51.552;9.874;2024-01-06T00:59:04;4.38;;;2.40;;
13795;SDS011;40911;51.552;9.874;2024-01-06T01:01:26;5.45;;;2.30;;
13795;SDS011;40911;51.552;9.874;2024-01-06T01:03:49;3.65;;;2.30;;
13795;SDS011;40911;51.552;9.874;2024-01-06T01:06:10;4.82;;;2.47;;
13795;SDS011;40911;51.552;9.874;2024-01-06T01:08:31;4.50;;;2.45;;
13795;SDS011;40911;51.552;9.874;2024-01-06T01:10:53;2.85;;;2.25;;
13795;SDS011;40911;51.552;9.874;2024-01-06T01:13:14;3.03;;;2.20;;
13795;SDS011;40911;51.552;9.874;2024-01-06T01:15:36;3.25;;;2.38;;
13795;SDS011;40911;51.552;9.874;2024-01-06T01:17:58;3.00;;;2.40;;
13795;SDS011;40911;51.552;9.874;2024-01-06T01:20:20;6.03;;;2.60;;
13795;SDS011;40911;51.552;9.874;2024-01-06T01:22:42;3.05;;;2.38;;
13795;SDS011;40911;51.552;9.874;2024-01-06T01:25:04;6.47;;;2.90;;
13795;SDS011;40911;51.552;9.874;2024-01-06T01:27:27;4.60;;;2.05;;
13795;SDS011;40911;51.552;9.874;2024-01-06T01:29:49;5.10;;;2.15;;
13795;SDS011;40911;51.552;9.874;2024-01-06T01:32:12;2.60;;;2.40;;
13795;SDS011;40911;51.552;9.874;2024-01-06T01:34:34;2.97;;;2.15;;
13795;SDS011;40911;51.552;9.874;2024-01-06T01:36:57;3.25;;;2.40;;
13795;SDS011;40911;51.552;9.874;2024-01-06T01:39:18;2.65;;;2.42;;
13795;SDS011;40911;51.552;9.874;2024-01-06T01:41:40;4.43;;;2.22;;
13795;SDS011;40911;51.552;9.874;2024-01-06T01:44:01;5.50;;;2.50;;
13795;SDS011;40911;51.552;9.874;2024-01-06T01:46:24;3.95;;;2.50;;
13795;SDS011;40911;51.552;9.874;2024-01-06T01:48:46;4.38;;;2.50;;
13795;SDS011;40911;51.552;9.874;2024-01-06T01:51:08;7.25;;;2.28;;
13795;SDS011;40911;51.552;9.874;2024-01-06T01:53:32;3.33;;;2.50;;
13795;SDS011;40911;51.552;9.874;2024-01-06T01:55:53;6.50;;;2.58;;
13795;SDS011;40911;51.552;9.874;2024-01-06T01:58:16;3.78;;;2.53;;
13795;SDS011;40911;51.552;9.874;2024-01-06T02:00:37;4.72;;;2.33;;
13795;SDS011;40911;51.552;9.874;2024-01-06T02:02:59;4.05;;;2.22;;
13795;SDS011;40911;51.552;9.874;2024-01-06T02:05:24;5.13;;;2.60;;
13795;SDS011;40911;51.552;9.874;2024-01-06T02:07:45;4.05;;;2.50;;
13795;SDS011;40911;51.552;9.874;2024-01-06T02:10:09;4.18;;;2.60;;
13795;SDS011;40911;51.552;9.874;2024-01-06T02:12:30;3.33;;;2.13;;
13795;SDS011;40911;51.552;9.874;2024-01-06T02:14:52;8.57;;;3.03;;
13795;SDS011;40911;51.552;9.874;2024-01-06T02:17:14;4.43;;;2.85;;
13795;SDS011;40911;51.552;9.874;2024-01-06T02:19:35;4.20;;;2.72;;
13795;SDS011;40911;51.552;9.874;2024-01-06T02:21:58;4.50;;;2.35;;
13795;SDS011;40911;51.552;9.874;2024-01-06T02:24:20;4.32;;;2.80;;
13795;SDS011;40911;51.552;9.874;2024-01-06T02:26:41;3.72;;;2.17;;
13795;SDS011;40911;51.552;9.874;2024-01-06T02:29:03;3.20;;;2.60;;
13795;SDS011;40911;51.552;9.874;2024-01-06T02:31:24;3.80;;;2.53;;
13795;SDS011;40911;51.552;9.874;2024-01-06T02:33:46;3.05;;;2.60;;
13795;SDS011;40911;51.552;9.874;2024-01-06T02:36:07;4.97;;;2.35;;
13795;SDS011;40911;51.552;9.874;2024-01-06T02:38:30;3.75;;;2.70;;
13795;SDS011;40911;51.552;9.874;2024-01-06T02:40:52;3.00;;;2.70;;
13795;SDS011;40911;51.552;9.874;2024-01-06T02:43:13;4.38;;;2.50;;
13795;SDS011;40911;51.552;9.874;2024-01-06T02:45:35;6.30;;;2.30;;
13795;SDS011;40911;51.552;9.874;2024-01-06T02:47:57;4.55;;;2.70;;
13795;SDS011;40911;51.552;9.874;2024-01-06T02:50:19;3.88;;;2.50;;
13795;SDS011;40911;51.552;9.874;2024-01-06T02:52:40;2.40;;;2.20;;
13795;SDS011;40911;51.552;9.874;2024-01-06T02:55:03;3.78;;;2.60;;
13795;SDS011;40911;51.552;9.874;2024-01-06T02:57:25;3.42;;;2.30;;
13795;SDS011;40911;51.552;9.874;2024-01-06T02:59:47;3.25;;;2.38;;
13795;SDS011;40911;51.552;9.874;2024-01-06T03:02:08;2.38;;;2.28;;
13795;SDS011;40911;51.552;9.874;2024-01-06T03:04:30;2.50;;;2.13;;
13795;SDS011;40911;51.552;9.874;2024-01-06T03:06:52;4.22;;;2.60;;
13795;SDS011;40911;51.552;9.874;2024-01-06T03:09:13;3.72;;;2.50;;
13795;SDS011;40911;51.552;9.874;2024-01-06T03:11:38;3.75;;;2.67;;
13795;SDS011;40911;51.552;9.874;2024-01-06T03:14:00;3.95;;;2.53;;
13795;SDS011;40911;51.552;9.874;2024-01-06T03:16:22;5.53;;;2.58;;
13795;SDS011;40911;51.552;9.874;2024-01-06T03:18:44;3.38;;;2.40;;
13795;SDS011;40911;51.552;9.874;2024-01-06T03:21:16;5.15;;;2.70;;
13795;SDS011;40911;51.552;9.874;2024-01-06T03:23:38;4.32;;;2.40;;
13795;SDS011;40911;51.552;9.874;2024-01-06T03:26:04;4.35;;;2.50;;
13795;SDS011;40911;51.552;9.874;2024-01-06T03:28:28;7.25;;;2.65;;
13795;SDS011;40911;51.552;9.874;2024-01-06T03:30:49;4.28;;;2.45;;
13795;SDS011;40911;51.552;9.874;2024-01-06T03:33:11;2.80;;;2.38;;
13795;SDS011;40911;51.552;9.874;2024-01-06T03:35:33;3.13;;;2.70;;
13795;SDS011;40911;51.552;9.874;2024-01-06T03:37:54;3.85;;;2.50;;
13795;SDS011;40911;51.552;9.874;2024-01-06T03:40:16;3.05;;;2.75;;
13795;SDS011;40911;51.552;9.874;2024-01-06T03:42:36;4.17;;;2.63;;
13795;SDS011;40911;51.552;9.874;2024-01-06T03:44:59;3.78;;;2.40;;
13795;SDS011;40911;51.552;9.874;2024-01-06T03:47:21;3.60;;;2.78;;
13795;SDS011;40911;51.552;9.874;2024-01-06T03:49:42;5.03;;;2.63;;
13795;SDS011;40911;51.552;9.874;2024-01-06T03:52:04;3.42;;;2.70;;
13795;SDS011;40911;51.552;9.874;2024-01-06T03:54:26;3.00;;;2.63;;
13795;SDS011;40911;51.552;9.874;2024-01-06T03:56:48;7.22;;;2.72;;
13795;SDS011;40911;51.552;9.874;2024-01-06T03:59:09;5.25;;;2.63;;
13795;SDS011;40911;51.552;9.874;2024-01-06T04:01:32;4.93;;;2.50;;
13795;SDS011;40911;51.552;9.874;2024-01-06T04:03:56;3.72;;;2.50;;
13795;SDS011;40911;51.552;9.874;2024-01-06T04:06:17;4.90;;;2.90;;
13795;SDS011;40911;51.552;9.874;2024-01-06T04:08:39;4.05;;;2.83;;
13795;SDS011;40911;51.552;9.874;2024-01-06T04:11:00;3.65;;;2.70;;
13795;SDS011;40911;51.552;9.874;2024-01-06T04:13:22;3.50;;;2.58;;
13795;SDS011;40911;51.552;9.874;2024-01-06T04:15:44;5.00;;;2.60;;
13795;SDS011;40911;51.552;9.874;2024-01-06T04:18:07;5.03;;;2.58;;
13795;SDS011;40911;51.552;9.874;2024-01-06T04:20:29;3.95;;;2.50;;
13795;SDS011;40911;51.552;9.874;2024-01-06T04:22:51;6.50;;;2.70;;
13795;SDS011;40911;51.552;9.874;2024-01-06T04:25:13;3.45;;;2.47;;
13795;SDS011;40911;51.552;9.874;2024-01-06T04:27:34;3.63;;;2.92;;
13795;SDS011;40911;51.552;9.874;2024-01-06T04:29:56;4.72;;;2.75;;
13795;SDS011;40911;51.552;9.874;2024-01-06T04:32:17;3.60;;;2.45;;
13795;SDS011;40911;51.552;9.874;2024-01-06T04:34:40;2.60;;;2.40;;
13795;SDS011;40911;51.552;9.874;2024-01-06T04:37:02;4.68;;;2.40;;
13795;SDS011;40911;51.552;9.874;2024-01-06T04:39:24;4.53;;;2.38;;
13795;SDS011;40911;51.552;9.874;2024-01-06T04:41:45;3.50;;;2.63;;
13795;SDS011;40911;51.552;9.874;2024-01-06T04:44:07;2.85;;;2.47;;
13795;SDS011;40911;51.552;9.874;2024-01-06T04:46:28;3.10;;;2.53;;
13795;SDS011;40911;51.552;9.874;2024-01-06T04:48:50;4.90;;;2.75;;
13795;SDS011;40911;51.552;9.874;2024-01-06T04:51:13;2.97;;;2.58;;
13795;SDS011;40911;51.552;9.874;2024-01-06T04:53:35;4.00;;;2.85;;
13795;SDS011;40911;51.552;9.874;2024-01-06T04:55:57;5.18;;;2.90;;
13795;SDS011;40911;51.552;9.874;2024-01-06T05:00:40;4.85;;;2.80;;
13795;SDS011;40911;51.552;9.874;2024-01-06T05:03:02;2.88;;;2.60;;
13795;SDS011;40911;51.552;9.874;2024-01-06T05:05:23;8.05;;;2.80;;
13795;SDS011;40911;51.552;9.874;2024-01-06T05:07:46;3.78;;;2.42;;
13795;SDS011;40911;51.552;9.874;2024-01-06T05:10:08;4.30;;;2.70;;
13795;SDS011;40911;51.552;9.874;2024-01-06T05:12:30;3.22;;;2.42;;
13795;SDS011;40911;51.552;9.874;2024-01-06T05:14:51;5.18;;;2.80;;
13795;SDS011;40911;51.552;9.874;2024-01-06T05:17:13;4.25;;;2.60;;
13795;SDS011;40911;51.552;9.874;2024-01-06T05:19:34;3.67;;;2.70;;
13795;SDS011;40911;51.552;9.874;2024-01-06T05:21:56;10.27;;;3.10;;
13795;SDS011;40911;51.552;9.874;2024-01-06T05:26:41;4.05;;;2.60;;
13795;SDS011;40911;51.552;9.874;2024-01-06T05:29:02;6.28;;;2.92;;
13795;SDS011;40911;51.552;9.874;2024-01-06T05:31:24;4.90;;;2.85;;
13795;SDS011;40911;51.552;9.874;2024-01-06T05:33:46;3.97;;;2.67;;
13795;SDS011;40911;51.552;9.874;2024-01-06T05:36:08;6.65;;;2.75;;
13795;SDS011;40911;51.552;9.874;2024-01-06T05:38:29;2.67;;;2.47;;
13795;SDS011;40911;51.552;9.874;2024-01-06T05:40:51;3.47;;;2.40;;
13795;SDS011;40911;51.552;9.874;2024-01-06T05:43:13;3.03;;;2.78;;
13795;SDS011;40911;51.552;9.874;2024-01-06T05:45:34;3.60;;;2.75;;
13795;SDS011;40911;51.552;9.874;2024-01-06T05:47:57;3.95;;;2.92;;
13795;SDS011;40911;51.552;9.874;2024-01-06T05:50:18;6.10;;;2.95;;
13795;SDS011;40911;51.552;9.874;2024-01-06T05:52:40;2.92;;;2.72;;
13795;SDS011;40911;51.552;9.874;2024-01-06T05:55:02;3.22;;;2.90;;
13795;SDS011;40911;51.552;9.874;2024-01-06T05:57:25;3.00;;;2.80;;
13795;SDS011;40911;51.552;9.874;2024-01-06T05:59:46;6.82;;;3.35;;
13795;SDS011;40911;51.552;9.874;2024-01-06T06:02:09;5.15;;;3.30;;
13795;SDS011;40911;51.552;9.874;2024-01-06T06:04:30;7.18;;;3.10;;
13795;SDS011;40911;51.552;9.874;2024-01-06T06:06:52;4.90;;;2.92;;
13795;SDS011;40911;51.552;9.874;2024-01-06T06:09:13;3.03;;;2.80;;
13795;SDS011;40911;51.552;9.874;2024-01-06T06:13:58;4.72;;;3.35;;
13795;SDS011;40911;51.552;9.874;2024-01-06T06:16:22;3.63;;;2.75;;
13795;SDS011;40911;51.552;9.874;2024-01-06T06:18:44;4.60;;;3.00;;
13795;SDS011;40911;51.552;9.874;2024-01-06T06:21:06;3.40;;;2.55;;
13795;SDS011;40911;51.552;9.874;2024-01-06T06:23:28;5.68;;;2.80;;
13795;SDS011;40911;51.552;9.874;2024-01-06T06:25:48;4.67;;;2.77;;
13795;SDS011;40911;51.552;9.874;2024-01-06T06:28:11;3.03;;;2.83;;
13795;SDS011;40911;51.552;9.874;2024-01-06T06:30:34;3.20;;;2.50;;
13795;SDS011;40911;51.552;9.874;2024-01-06T06:32:55;4.43;;;2.92;;
13795;SDS011;40911;51.552;9.874;2024-01-06T06:35:17;6.47;;;2.88;;
13795;SDS011;40911;51.552;9.874;2024-01-06T06:37:38;4.85;;;2.67;;
13795;SDS011;40911;51.552;9.874;2024-01-06T06:40:00;4.38;;;2.80;;
13795;SDS011;40911;51.552;9.874;2024-01-06T06:42:21;3.55;;;2.50;;
13795;SDS011;40911;51.552;9.874;2024-01-06T06:44:43;3.25;;;2.88;;
13795;SDS011;40911;51.552;9.874;2024-01-06T06:47:06;4.70;;;2.80;;
13795;SDS011;40911;51.552;9.874;2024-01-06T06:49:27;3.17;;;2.63;;
13795;SDS011;40911;51.552;9.874;2024-01-06T06:51:49;4.30;;;2.50;;
13795;SDS011;40911;51.552;9.874;2024-01-06T06:54:11;3.38;;;2.70;;
13795;SDS011;40911;51.552;9.874;2024-01-06T06:56:32;3.63;;;2.90;;
13795;SDS011;40911;51.552;9.874;2024-01-06T07:01:15;2.67;;;2.47;;
13795;SDS011;40911;51.552;9.874;2024-01-06T07:03:38;2.88;;;2.58;;
13795;SDS011;40911;51.552;9.874;2024-01-06T07:06:00;3.15;;;2.85;;
13795;SDS011;40911;51.552;9.874;2024-01-06T07:08:22;4.15;;;2.80;;
13795;SDS011;40911;51.552;9.874;2024-01-06T07:10:44;4.20;;;2.88;;
13795;SDS011;40911;51.552;9.874;2024-01-06T07:13:06;4.05;;;3.08;;
13795;SDS011;40911;51.552;9.874;2024-01-06T07:15:27;5.78;;;3.10;;
13795;SDS011;40911;51.552;9.874;2024-01-06T07:17:49;5.47;;;3.05;;
13795;SDS011;40911;51.552;9.874;2024-01-06T07:20:12;6.22;;;3.35;;
13795;SDS011;40911;51.552;9.874;2024-01-06T07:22:33;3.30;;;3.00;;
13795;SDS011;40911;51.552;9.874;2024-01-06T07:24:55;7.15;;;3.30;;
13795;SDS011;40911;51.552;9.874;2024-01-06T07:27:17;4.18;;;3.00;;
13795;SDS011;40911;51.552;9.874;2024-01-06T07:29:38;3.78;;;3.17;;
13795;SDS011;40911;51.552;9.874;2024-01-06T07:32:00;3.45;;;3.05;;
13795;SDS011;40911;51.552;9.874;2024-01-06T07:34:21;6.22;;;3.17;;
13795;SDS011;40911;51.552;9.874;2024-01-06T07:36:45;5.22;;;3.38;;
13795;SDS011;40911;51.552;9.874;2024-01-06T07:39:07;4.20;;;3.80;;
13795;SDS011;40911;51.552;9.874;2024-01-06T07:41:29;4.68;;;3.92;;
13795;SDS011;40911;51.552;9.874;2024-01-06T07:43:52;5.57;;;4.10;;
13795;SDS011;40911;51.552;9.874;2024-01-06T07:46:14;8.75;;;4.53;;
13795;SDS011;40911;51.552;9.874;2024-01-06T07:48:36;6.22;;;4.05;;
13795;SDS011;40911;51.552;9.874;2024-01-06T07:50:58;5.10;;;4.30;;
13795;SDS011;40911;51.552;9.874;2024-01-06T07:53:21;7.07;;;3.90;;
13795;SDS011;40911;51.552;9.874;2024-01-06T07:55:42;6.85;;;4.00;;
13795;SDS011;40911;51.552;9.874;2024-01-06T07:58:04;5.57;;;3.70;;
13795;SDS011;40911;51.552;9.874;2024-01-06T08:00:26;4.40;;;3.92;;
13795;SDS011;40911;51.552;9.874;2024-01-06T08:02:47;5.15;;;3.60;;
13795;SDS011;40911;51.552;9.874;2024-01-06T08:05:09;5.72;;;3.70;;
13795;SDS011;40911;51.552;9.874;2024-01-06T08:07:30;5.70;;;3.45;;
13795;SDS011;40911;51.552;9.874;2024-01-06T08:09:53;3.60;;;3.17;;
13795;SDS011;40911;51.552;9.874;2024-01-06T08:12:15;4.00;;;3.45;;
13795;SDS011;40911;51.552;9.874;2024-01-06T08:16:58;5.13;;;3.63;;
13795;SDS011;40911;51.552;9.874;2024-01-06T08:19:20;4.25;;;3.60;;
13795;SDS011;40911;51.552;9.874;2024-01-06T08:21:41;5.63;;;3.97;;
13795;SDS011;40911;51.552;9.874;2024-01-06T08:24:03;6.47;;;3.53;;
13795;SDS011;40911;51.552;9.874;2024-01-06T08:28:48;5.05;;;4.32;;
13795;SDS011;40911;51.552;9.874;2024-01-06T08:31:09;5.60;;;4.30;;
13795;SDS011;40911;51.552;9.874;2024-01-06T08:33:31;11.75;;;4.93;;
13795;SDS011;40911;51.552;9.874;2024-01-06T08:35:53;9.40;;;4.13;;
13795;SDS011;40911;51.552;9.874;2024-01-06T08:38:15;5.95;;;4.03;;
13795;SDS011;40911;51.552;9.874;2024-01-06T08:40:36;4.43;;;3.97;;
13795;SDS011;40911;51.552;9.874;2024-01-06T08:42:59;6.72;;;4.25;;
13795;SDS011;40911;51.552;9.874;2024-01-06T08:45:21;4.18;;;3.53;;
13795;SDS011;40911;51.552;9.874;2024-01-06T08:47:42;4.65;;;4.05;;
13795;SDS011;40911;51.552;9.874;2024-01-06T08:50:04;4.57;;;3.70;;
13795;SDS011;40911;51.552;9.874;2024-01-06T08:52:27;8.40;;;4.10;;
13795;SDS011;40911;51.552;9.874;2024-01-06T08:54:48;5.45;;;4.25;;
13795;SDS011;40911;51.552;9.874;2024-01-06T08:57:10;6.93;;;4.03;;
13795;SDS011;40911;51.552;9.874;2024-01-06T08:59:33;7.53;;;4.85;;
13795;SDS011;40911;51.552;9.874;2024-01-06T09:01:55;6.70;;;5.18;;
13795;SDS011;40911;51.552;9.874;2024-01-06T09:04:16;10.40;;;5.43;;
13795;SDS011;40911;51.552;9.874;2024-01-06T09:09:00;7.40;;;4.85;;
13795;SDS011;40911;51.552;9.874;2024-01-06T09:11:22;5.60;;;4.70;;
13795;SDS011;40911;51.552;9.874;2024-01-06T09:13:43;6.03;;;4.47;;
13795;SDS011;40911;51.552;9.874;2024-01-06T09:16:06;6.35;;;4.80;;
13795;SDS011;40911;51.552;9.874;2024-01-06T09:18:28;7.93;;;4.72;;
13795;SDS011;40911;51.552;9.874;2024-01-06T09:20:50;5.25;;;4.05;;
13795;SDS011;40911;51.552;9.874;2024-01-06T09:23:12;6.22;;;4.72;;
13795;SDS011;40911;51.552;9.874;2024-01-06T09:25:33;7.57;;;4.45;;
13795;SDS011;40911;51.552;9.874;2024-01-06T09:27:55;6.47;;;4.07;;
13795;SDS011;40911;51.552;9.874;2024-01-06T09:30:17;6.57;;;4.13;;
13795;SDS011;40911;51.552;9.874;2024-01-06T09:32:40;6.95;;;3.88;;
13795;SDS011;40911;51.552;9.874;2024-01-06T09:35:01;6.35;;;3.83;;
13795;SDS011;40911;51.552;9.874;2024-01-06T09:37:24;5.25;;;4.00;;
13795;SDS011;40911;51.552;9.874;2024-01-06T09:39:45;7.15;;;4.03;;
13795;SDS011;40911;51.552;9.874;2024-01-06T09:42:07;7.43;;;4.15;;
13795;SDS011;40911;51.552;9.874;2024-01-06T09:44:29;8.00;;;4.20;;
13795;SDS011;40911;51.552;9.874;2024-01-06T09:46:51;6.75;;;4.25;;
13795;SDS011;40911;51.552;9.874;2024-01-06T09:49:14;6.43;;;4.30;;
13795;SDS011;40911;51.552;9.874;2024-01-06T09:51:37;9.57;;;5.18;;
13795;SDS011;40911;51.552;9.874;2024-01-06T09:54:04;6.85;;;4.35;;
13795;SDS011;40911;51.552;9.874;2024-01-06T09:56:30;8.23;;;4.65;;
13795;SDS011;40911;51.552;9.874;2024-01-06T09:58:51;8.32;;;4.82;;
13795;SDS011;40911;51.552;9.874;2024-01-06T10:01:13;6.82;;;4.13;;
13795;SDS011;40911;51.552;9.874;2024-01-06T10:03:36;5.35;;;4.30;;
13795;SDS011;40911;51.552;9.874;2024-01-06T10:05:59;5.72;;;4.03;;
13795;SDS011;40911;51.552;9.874;2024-01-06T10:08:25;6.32;;;4.00;;
13795;SDS011;40911;51.552;9.874;2024-01-06T10:10:46;7.13;;;4.20;;
13795;SDS011;40911;51.552;9.874;2024-01-06T10:13:09;7.78;;;4.50;;
13795;SDS011;40911;51.552;9.874;2024-01-06T10:15:30;11.10;;;4.32;;
13795;SDS011;40911;51.552;9.874;2024-01-06T10:17:53;6.23;;;4.40;;
13795;SDS011;40911;51.552;9.874;2024-01-06T10:20:15;8.07;;;4.25;;
13795;SDS011;40911;51.552;9.874;2024-01-06T10:22:40;8.05;;;4.40;;
13795;SDS011;40911;51.552;9.874;2024-01-06T10:25:03;8.10;;;4.72;;
13795;SDS011;40911;51.552;9.874;2024-01-06T10:27:26;7.47;;;4.78;;
13795;SDS011;40911;51.552;9.874;2024-01-06T10:29:48;5.30;;;4.43;;
13795;SDS011;40911;51.552;9.874;2024-01-06T10:32:09;11.05;;;5.13;;
13795;SDS011;40911;51.552;9.874;2024-01-06T10:36:52;6.10;;;4.60;;
13795;SDS011;40911;51.552;9.874;2024-01-06T10:39:16;15.32;;;4.90;;
13795;SDS011;40911;51.552;9.874;2024-01-06T10:41:37;10.13;;;4.75;;
13795;SDS011;40911;51.552;9.874;2024-01-06T10:44:00;7.28;;;4.82;;
13795;SDS011;40911;51.552;9.874;2024-01-06T10:46:24;7.32;;;4.78;;
13795;SDS011;40911;51.552;9.874;2024-01-06T10:48:46;6.50;;;4.47;;
13795;SDS011;40911;51.552;9.874;2024-01-06T10:51:09;8.82;;;5.13;;
13795;SDS011;40911;51.552;9.874;2024-01-06T10:53:31;11.82;;;5.72;;
13795;SDS011;40911;51.552;9.874;2024-01-06T10:55:57;7.32;;;4.40;;
13795;SDS011;40911;51.552;9.874;2024-01-06T10:58:19;9.07;;;4.40;;
13795;SDS011;40911;51.552;9.874;2024-01-06T11:00:41;10.52;;;4.75;;
13795;SDS011;40911;51.552;9.874;2024-01-06T11:03:03;7.35;;;4.38;;
13795;SDS011;40911;51.552;9.874;2024-01-06T11:05:26;12.30;;;4.50;;
13795;SDS011;40911;51.552;9.874;2024-01-06T11:07:49;8.05;;;4.30;;
13795;SDS011;40911;51.552;9.874;2024-01-06T11:10:14;8.38;;;4.07;;
13795;SDS011;40911;51.552;9.874;2024-01-06T11:12:39;7.65;;;4.20;;
13795;SDS011;40911;51.552;9.874;2024-01-06T11:15:01;14.48;;;6.10;;
13795;SDS011;40911;51.552;9.874;2024-01-06T11:20:13;12.23;;;5.13;;
13795;SDS011;40911;51.552;9.874;2024-01-06T11:22:34;6.63;;;4.45;;
13795;SDS011;40911;51.552;9.874;2024-01-06T11:25:03;8.07;;;4.85;;
13795;SDS011;40911;51.552;9.874;2024-01-06T11:27:27;7.88;;;5.38;;
13795;SDS011;40911;51.552;9.874;2024-01-06T11:29:52;6.05;;;4.50;;
13795;SDS011;40911;51.552;9.874;2024-01-06T11:32:17;7.55;;;4.43;;
13795;SDS011;40911;51.552;9.874;2024-01-06T11:34:41;5.97;;;4.07;;
13795;SDS011;40911;51.552;9.874;2024-01-06T11:39:34;7.68;;;4.20;;
13795;SDS011;40911;51.552;9.874;2024-01-06T11:41:58;9.75;;;5.10;;
13795;SDS011;40911;51.552;9.874;2024-01-06T11:44:20;9.85;;;5.47;;
13795;SDS011;40911;51.552;9.874;2024-01-06T11:46:43;32.65;;;14.50;;
13795;SDS011;40911;51.552;9.874;2024-01-06T11:49:06;19.13;;;8.90;;
13795;SDS011;40911;51.552;9.874;2024-01-06T11:51:30;9.90;;;5.57;;
13795;SDS011;40911;51.552;9.874;2024-01-06T11:53:52;12.55;;;6.57;;
13795;SDS011;40911;51.552;9.874;2024-01-06T11:56:14;6.97;;;5.28;;
13795;SDS011;40911;51.552;9.874;2024-01-06T11:58:42;6.10;;;4.63;;
13795;SDS011;40911;51.552;9.874;2024-01-06T12:01:04;16.27;;;6.72;;
13795;SDS011;40911;51.552;9.874;2024-01-06T12:03:27;15.00;;;11.70;;
13795;SDS011;40911;51.552;9.874;2024-01-06T12:05:58;9.07;;;7.05;;
13795;SDS011;40911;51.552;9.874;2024-01-06T12:08:21;11.25;;;6.70;;
13795;SDS011;40911;51.552;9.874;2024-01-06T12:10:42;12.25;;;9.80;;
13795;SDS011;40911;51.552;9.874;2024-01-06T12:13:04;7.60;;;6.78;;
13795;SDS011;40911;51.552;9.874;2024-01-06T12:15:29;10.27;;;6.07;;
13795;SDS011;40911;51.552;9.874;2024-01-06T12:17:51;11.82;;;6.68;;
13795;SDS011;40911;51.552;9.874;2024-01-06T12:20:14;10.38;;;6.50;;
13795;SDS011;40911;51.552;9.874;2024-01-06T12:22:36;6.28;;;5.55;;
13795;SDS011;40911;51.552;9.874;2024-01-06T12:24:58;6.68;;;5.22;;
13795;SDS011;40911;51.552;9.874;2024-01-06T12:27:20;10.35;;;6.38;;
13795;SDS011;40911;51.552;9.874;2024-01-06T12:29:41;9.77;;;5.32;;
13795;SDS011;40911;51.552;9.874;2024-01-06T12:32:03;8.38;;;5.10;;
13795;SDS011;40911;51.552;9.874;2024-01-06T12:34:25;6.03;;;4.40;;
13795;SDS011;40911;51.552;9.874;2024-01-06T12:39:13;5.25;;;4.63;;
13795;SDS011;40911;51.552;9.874;2024-01-06T12:41:36;8.02;;;4.68;;
13795;SDS011;40911;51.552;9.874;2024-01-06T12:43:58;6.43;;;4.38;;
13795;SDS011;40911;51.552;9.874;2024-01-06T12:46:20;5.50;;;4.78;;
13795;SDS011;40911;51.552;9.874;2024-01-06T12:48:41;5.65;;;4.40;;
13795;SDS011;40911;51.552;9.874;2024-01-06T12:51:03;7.28;;;5.22;;
13795;SDS011;40911;51.552;9.874;2024-01-06T12:53:26;8.90;;;4.80;;
13795;SDS011;40911;51.552;9.874;2024-01-06T12:55:48;8.65;;;5.45;;
13795;SDS011;40911;51.552;9.874;2024-01-06T12:58:10;10.18;;;5.28;;
13795;SDS011;40911;51.552;9.874;2024-01-06T13:00:31;8.30;;;4.93;;
13795;SDS011;40911;51.552;9.874;2024-01-06T13:02:53;6.72;;;4.50;;
13795;SDS011;40911;51.552;9.874;2024-01-06T13:05:14;7.00;;;4.85;;
13795;SDS011;40911;51.552;9.874;2024-01-06T13:07:36;6.35;;;4.70;;
13795;SDS011;40911;51.552;9.874;2024-01-06T13:09:59;11.63;;;4.95;;
13795;SDS011;40911;51.552;9.874;2024-01-06T13:12:21;7.20;;;4.88;;
13795;SDS011;40911;51.552;9.874;2024-01-06T13:14:43;11.93;;;5.50;;
13795;SDS011;40911;51.552;9.874;2024-01-06T13:17:07;9.80;;;5.57;;
13795;SDS011;40911;51.552;9.874;2024-01-06T13:19:29;8.65;;;6.13;;
13795;SDS011;40911;51.552;9.874;2024-01-06T13:24:12;9.68;;;5.15;;
13795;SDS011;40911;51.552;9.874;2024-01-06T13:28:57;8.70;;;4.85;;
13795;SDS011;40911;51.552;9.874;2024-01-06T13:33:42;8.95;;;5.35;;
13795;SDS011;40911;51.552;9.874;2024-01-06T13:38:26;22.52;;;9.65;;
13795;SDS011;40911;51.552;9.874;2024-01-06T13:40:48;18.83;;;8.40;;
13795;SDS011;40911;51.552;9.874;2024-01-06T13:43:13;13.65;;;6.93;;
13795;SDS011;40911;51.552;9.874;2024-01-06T13:45:35;14.05;;;7.72;;
13795;SDS011;40911;51.552;9.874;2024-01-06T13:47:58;9.95;;;6.13;;
13795;SDS011;40911;51.552;9.874;2024-01-06T13:52:42;11.38;;;5.75;;
13795;SDS011;40911;51.552;9.874;2024-01-06T13:55:05;14.00;;;7.53;;
13795;SDS011;40911;51.552;9.874;2024-01-06T13:57:28;10.88;;;6.30;;
13795;SDS011;40911;51.552;9.874;2024-01-06T13:59:51;12.45;;;7.28;;
13795;SDS011;40911;51.552;9.874;2024-01-06T14:02:13;10.10;;;7.25;;
13795;SDS011;40911;51.552;9.874;2024-01-06T14:04:37;9.50;;;7.53;;
13795;SDS011;40911;51.552;9.874;2024-01-06T14:06:59;10.38;;;7.18;;
13795;SDS011;40911;51.552;9.874;2024-01-06T14:09:22;13.15;;;6.30;;
13795;SDS011;40911;51.552;9.874;2024-01-06T14:14:05;7.15;;;5.45;;
13795;SDS011;40911;51.552;9.874;2024-01-06T14:16:28;8.70;;;6.35;;
13795;SDS011;40911;51.552;9.874;2024-01-06T14:18:50;10.65;;;6.47;;
13795;SDS011;40911;51.552;9.874;2024-01-06T14:21:13;10.07;;;5.75;;
13795;SDS011;40911;51.552;9.874;2024-01-06T14:23:35;9.80;;;5.57;;
13795;SDS011;40911;51.552;9.874;2024-01-06T14:28:18;9.00;;;5.15;;
13795;SDS011;40911;51.552;9.874;2024-01-06T14:30:40;8.90;;;5.40;;
13795;SDS011;40911;51.552;9.874;2024-01-06T14:33:04;7.68;;;5.47;;
13795;SDS011;40911;51.552;9.874;2024-01-06T14:35:26;8.32;;;5.72;;
13795;SDS011;40911;51.552;9.874;2024-01-06T14:37:47;6.47;;;5.30;;
13795;SDS011;40911;51.552;9.874;2024-01-06T14:40:11;8.15;;;6.07;;
13795;SDS011;40911;51.552;9.874;2024-01-06T14:42:33;10.73;;;5.38;;
13795;SDS011;40911;51.552;9.874;2024-01-06T14:44:56;8.40;;;5.70;;
13795;SDS011;40911;51.552;9.874;2024-01-06T14:47:17;6.82;;;5.30;;
13795;SDS011;40911;51.552;9.874;2024-01-06T14:49:40;9.55;;;5.47;;
13795;SDS011;40911;51.552;9.874;2024-01-06T14:52:02;8.77;;;5.28;;
13795;SDS011;40911;51.552;9.874;2024-01-06T14:54:25;10.20;;;5.55;;
13795;SDS011;40911;51.552;9.874;2024-01-06T14:56:50;8.85;;;5.32;;